Time;durP1;ratioP1;P1;durP2;ratioP2;P2;SDS_P1;SDS_P2;PMS_P1;PMS_P2;Temp;Humidity;BMP_temperature;BMP_pressure;BME280_temperature;BME280_humidity;BME280_pressure;Samples;Min_cycle;Max_cycle;Signal;HPM_P1;HPM_P2
2022/03/25 00:01:34;;;;;;;74.37;34.93;;;;;;;;;;5098953;28;20413;-53
2022/03/25 00:04:00;;;;;;;85.13;36.10;;;;;;;;;;5098932;28;20436;-52
2022/03/25 00:06:26;;;;;;;82.40;36.93;;;;;;;;;;5099157;28;20437;-54
2022/03/25 00:08:55;;;;;;;78.50;36.13;;;;;;;;;;5081058;28;20838;-54
2022/03/25 00:11:21;;;;;;;72.63;34.77;;;;;;;;;;5080832;28;20418;-53
2022/03/25 00:13:47;;;;;;;74.30;37.63;;;;;;;;;;5098945;28;20517;-52
2022/03/25 00:16:13;;;;;;;73.83;35.83;;;;;;;;;;5098871;28;20971;-56
2022/03/25 00:18:42;;;;;;;76.00;36.83;;;;;;;;;;5098806;28;20461;-59
2022/03/25 00:21:08;;;;;;;78.30;38.20;;;;;;;;;;5098932;28;20401;-56
2022/03/25 00:23:34;;;;;;;76.87;37.70;;;;;;;;;;5080665;28;20484;-56
2022/03/25 00:26:01;;;;;;;81.77;36.90;;;;;;;;;;5080676;28;20402;-55
2022/03/25 00:28:27;;;;;;;77.43;38.20;;;;;;;;;;5080751;28;20873;-55
2022/03/25 00:30:55;;;;;;;80.50;36.80;;;;;;;;;;5081254;28;20544;-55
2022/03/25 00:33:21;;;;;;;78.03;37.37;;;;;;;;;;5098697;28;20973;-53
2022/03/25 00:35:47;;;;;;;84.67;38.83;;;;;;;;;;5098607;28;20868;-54
2022/03/25 00:38:13;;;;;;;85.33;38.10;;;;;;;;;;5098850;28;20402;-55
2022/03/25 00:40:39;;;;;;;89.30;38.90;;;;;;;;;;5098677;28;20422;-52
2022/03/25 00:43:09;;;;;;;77.37;38.10;;;;;;;;;;5080559;28;20425;-55
2022/03/25 00:45:35;;;;;;;77.60;38.37;;;;;;;;;;5080501;28;20497;-58
2022/03/25 00:48:01;;;;;;;84.87;40.17;;;;;;;;;;5098704;28;20424;-53
2022/03/25 00:50:28;;;;;;;77.00;39.40;;;;;;;;;;5098852;28;20539;-56
2022/03/25 00:52:55;;;;;;;83.80;40.20;;;;;;;;;;5095610;28;20914;-52
2022/03/25 00:55:21;;;;;;;77.97;37.40;;;;;;;;;;5095325;28;20465;-57
2022/03/25 00:57:47;;;;;;;77.37;39.10;;;;;;;;;;5077056;28;20511;-53
2022/03/25 01:00:13;;;;;;;80.17;39.23;;;;;;;;;;5095275;28;20422;-57
2022/03/25 01:02:39;;;;;;;88.73;40.93;;;;;;;;;;5095103;28;20770;-58
2022/03/25 01:05:06;;;;;;;78.97;39.67;;;;;;;;;;5095317;28;20420;-58
2022/03/25 01:07:34;;;;;;;76.87;38.70;;;;;;;;;;5077170;28;20993;-58
2022/03/25 01:10:00;;;;;;;84.47;38.47;;;;;;;;;;5095158;28;20436;-56
2022/03/25 01:12:26;;;;;;;78.23;39.73;;;;;;;;;;5095295;28;20954;-60
2022/03/25 01:14:55;;;;;;;83.40;40.90;;;;;;;;;;5094917;28;20510;-53
2022/03/25 01:17:21;;;;;;;80.63;39.10;;;;;;;;;;5076846;28;20843;-54
2022/03/25 01:19:47;;;;;;;81.67;40.70;;;;;;;;;;5094851;28;20461;-53
2022/03/25 01:22:16;;;;;;;81.37;40.33;;;;;;;;;;5094861;28;20426;-54
2022/03/25 01:24:42;;;;;;;80.27;40.90;;;;;;;;;;5094931;28;20398;-56
2022/03/25 01:27:09;;;;;;;77.17;38.73;;;;;;;;;;5094934;28;20565;-56
2022/03/25 01:29:36;;;;;;;78.77;39.07;;;;;;;;;;5076685;28;20418;-57
2022/03/25 01:32:03;;;;;;;86.93;40.63;;;;;;;;;;5094875;28;20407;-58
2022/03/25 01:34:29;;;;;;;81.50;40.87;;;;;;;;;;5094725;28;20536;-57
2022/03/25 01:36:55;;;;;;;77.57;40.40;;;;;;;;;;5094957;28;20462;-57
2022/03/25 01:39:22;;;;;;;75.07;38.47;;;;;;;;;;5094556;28;20409;-59
2022/03/25 01:41:48;;;;;;;76.10;38.30;;;;;;;;;;5094755;28;20406;-55
2022/03/25 01:44:14;;;;;;;74.33;36.47;;;;;;;;;;5094609;28;20440;-56
2022/03/25 01:46:40;;;;;;;71.47;37.17;;;;;;;;;;5094577;28;20497;-51
2022/03/25 01:49:06;;;;;;;76.63;37.70;;;;;;;;;;5094592;28;20918;-53
2022/03/25 01:51:34;;;;;;;71.47;36.00;;;;;;;;;;5094593;28;20501;-54
2022/03/25 01:54:01;;;;;;;75.60;37.37;;;;;;;;;;5094411;28;20415;-52
2022/03/25 01:56:27;;;;;;;76.63;37.53;;;;;;;;;;5094484;28;20437;-56
2022/03/25 01:58:53;;;;;;;77.53;39.13;;;;;;;;;;5076380;28;20746;-52
2022/03/25 02:01:20;;;;;;;75.90;36.53;;;;;;;;;;5094245;28;20438;-53
2022/03/25 02:03:47;;;;;;;78.67;37.57;;;;;;;;;;5093769;28;20409;-52
2022/03/25 02:06:13;;;;;;;70.83;35.33;;;;;;;;;;5075915;28;20930;-51
2022/03/25 02:08:39;;;;;;;69.60;36.40;;;;;;;;;;5093988;28;20805;-54
2022/03/25 02:11:06;;;;;;;70.67;36.40;;;;;;;;;;5093824;28;20417;-58
2022/03/25 02:13:32;;;;;;;83.73;35.63;;;;;;;;;;5093910;28;20878;-51
2022/03/25 02:15:58;;;;;;;71.37;34.47;;;;;;;;;;5075752;28;20469;-54
2022/03/25 02:18:25;;;;;;;78.00;35.67;;;;;;;;;;5093956;28;20449;-53
2022/03/25 02:20:51;;;;;;;68.50;34.00;;;;;;;;;;5093643;28;20775;-54
2022/03/25 02:23:17;;;;;;;67.37;34.07;;;;;;;;;;5093787;28;20400;-51
2022/03/25 02:25:44;;;;;;;75.07;34.80;;;;;;;;;;5075580;28;20407;-53
2022/03/25 02:28:10;;;;;;;65.63;34.17;;;;;;;;;;5093615;28;20957;-50
2022/03/25 02:30:37;;;;;;;67.47;33.70;;;;;;;;;;5093612;28;20406;-53
2022/03/25 02:33:04;;;;;;;65.17;33.77;;;;;;;;;;5093458;28;20418;-53
2022/03/25 02:35:37;;;;;;;65.87;33.37;;;;;;;;;;5093467;28;20457;-53
2022/03/25 02:38:03;;;;;;;69.30;33.00;;;;;;;;;;5093463;28;20402;-51
2022/03/25 02:40:29;;;;;;;69.13;34.00;;;;;;;;;;5075127;28;20417;-52
2022/03/25 02:42:55;;;;;;;74.57;34.40;;;;;;;;;;5093568;28;20886;-54
2022/03/25 02:45:22;;;;;;;63.47;33.73;;;;;;;;;;5075096;28;20479;-53
2022/03/25 02:47:48;;;;;;;80.27;35.33;;;;;;;;;;5093102;28;20802;-55
2022/03/25 02:50:17;;;;;;;66.40;32.73;;;;;;;;;;5093240;28;20438;-53
2022/03/25 02:52:43;;;;;;;71.63;32.83;;;;;;;;;;5074863;28;20410;-54
2022/03/25 02:55:10;;;;;;;66.13;33.93;;;;;;;;;;5074827;28;20468;-52
2022/03/25 02:57:36;;;;;;;70.70;34.60;;;;;;;;;;5074831;28;20505;-53
2022/03/25 03:00:08;;;;;;;67.97;34.53;;;;;;;;;;5074870;28;20468;-52
2022/03/25 03:02:34;;;;;;;70.60;35.30;;;;;;;;;;5092959;28;20767;-54
2022/03/25 03:05:00;;;;;;;76.50;36.90;;;;;;;;;;5092895;28;20405;-51
2022/03/25 03:07:26;;;;;;;70.20;36.97;;;;;;;;;;5093088;28;20767;-52
2022/03/25 03:09:52;;;;;;;73.80;38.47;;;;;;;;;;5092886;28;20398;-53
2022/03/25 03:12:18;;;;;;;81.57;38.50;;;;;;;;;;5074702;28;21044;-53
2022/03/25 03:14:44;;;;;;;73.70;37.80;;;;;;;;;;5092608;28;20502;-54
2022/03/25 03:17:12;;;;;;;80.73;37.43;;;;;;;;;;5092196;28;20491;-53
2022/03/25 03:19:38;;;;;;;74.80;37.03;;;;;;;;;;5092622;28;20488;-55
2022/03/25 03:22:04;;;;;;;80.23;37.57;;;;;;;;;;5092787;28;20870;-52
2022/03/25 03:24:30;;;;;;;69.97;36.43;;;;;;;;;;5074490;28;20847;-53
2022/03/25 03:26:59;;;;;;;77.63;37.20;;;;;;;;;;5092723;28;20398;-53
2022/03/25 03:29:25;;;;;;;75.70;37.60;;;;;;;;;;5074635;28;20906;-54
2022/03/25 03:31:52;;;;;;;74.00;34.57;;;;;;;;;;5092588;28;20435;-54
2022/03/25 03:34:18;;;;;;;81.93;35.77;;;;;;;;;;5092452;28;20494;-53
2022/03/25 03:36:44;;;;;;;78.73;35.83;;;;;;;;;;5092561;28;20410;-53
2022/03/25 03:39:11;;;;;;;78.17;35.13;;;;;;;;;;5092468;28;20402;-54
2022/03/25 03:41:38;;;;;;;72.73;36.27;;;;;;;;;;5074684;28;20806;-54
2022/03/25 03:44:04;;;;;;;72.67;37.23;;;;;;;;;;5092659;28;20793;-54
2022/03/25 03:46:30;;;;;;;68.23;36.07;;;;;;;;;;5074497;28;20466;-54
2022/03/25 03:48:56;;;;;;;71.13;34.17;;;;;;;;;;5074753;28;20421;-54
2022/03/25 03:51:23;;;;;;;78.43;35.13;;;;;;;;;;5074389;28;20406;-54
2022/03/25 03:53:48;;;;;;;68.87;33.30;;;;;;;;;;5092390;28;20410;-54
2022/03/25 03:56:14;;;;;;;69.73;32.23;;;;;;;;;;5092163;28;20835;-58
2022/03/25 03:58:40;;;;;;;63.10;30.80;;;;;;;;;;5092332;28;20422;-56
2022/03/25 04:01:06;;;;;;;67.33;31.77;;;;;;;;;;5092306;28;20401;-56
2022/03/25 04:03:35;;;;;;;57.03;28.70;;;;;;;;;;5092097;28;20755;-55
2022/03/25 04:06:01;;;;;;;71.70;30.13;;;;;;;;;;5092187;28;20401;-53
2022/03/25 04:08:28;;;;;;;63.33;28.57;;;;;;;;;;5092305;28;20485;-56
2022/03/25 04:10:58;;;;;;;59.50;27.73;;;;;;;;;;5092432;28;20455;-58
2022/03/25 04:13:24;;;;;;;56.03;28.17;;;;;;;;;;5092156;28;20429;-55
2022/03/25 04:15:51;;;;;;;59.37;28.50;;;;;;;;;;5091837;28;20467;-51
2022/03/25 04:18:20;;;;;;;58.40;28.10;;;;;;;;;;5091876;28;20402;-52
2022/03/25 04:20:46;;;;;;;69.77;29.60;;;;;;;;;;5092468;28;20775;-53
2022/03/25 04:23:12;;;;;;;70.27;28.80;;;;;;;;;;5073905;28;20405;-53
2022/03/25 04:25:38;;;;;;;51.10;26.97;;;;;;;;;;5091969;28;20409;-52
2022/03/25 04:28:05;;;;;;;64.30;28.50;;;;;;;;;;5094859;28;20405;-54
2022/03/25 04:30:32;;;;;;;66.43;27.63;;;;;;;;;;5095903;28;20406;-55
2022/03/25 04:33:01;;;;;;;60.50;29.33;;;;;;;;;;5095784;28;20454;-51
2022/03/25 04:35:28;;;;;;;61.40;29.50;;;;;;;;;;5095688;28;20496;-52
2022/03/25 04:37:55;;;;;;;67.10;27.67;;;;;;;;;;5095690;28;20405;-54
2022/03/25 04:40:22;;;;;;;53.80;26.30;;;;;;;;;;5077117;28;20416;-55
2022/03/25 04:42:49;;;;;;;55.40;26.73;;;;;;;;;;5095394;28;20952;-52
2022/03/25 04:45:15;;;;;;;57.10;28.47;;;;;;;;;;5095368;28;20406;-54
2022/03/25 04:47:42;;;;;;;63.17;28.53;;;;;;;;;;5077365;28;20421;-52
2022/03/25 04:50:08;;;;;;;53.40;27.73;;;;;;;;;;5095339;28;20402;-52
2022/03/25 04:52:34;;;;;;;62.63;27.77;;;;;;;;;;5095485;28;20918;-53
2022/03/25 04:55:00;;;;;;;53.40;26.23;;;;;;;;;;5095284;28;20473;-55
2022/03/25 04:57:26;;;;;;;52.40;25.70;;;;;;;;;;5095476;28;20470;-53
2022/03/25 04:59:53;;;;;;;58.63;26.10;;;;;;;;;;5095267;28;20416;-54
2022/03/25 05:02:19;;;;;;;51.07;26.93;;;;;;;;;;5077194;28;20826;-54
2022/03/25 05:04:44;;;;;;;48.30;24.93;;;;;;;;;;5095331;28;20449;-55
2022/03/25 05:07:15;;;;;;;58.40;26.33;;;;;;;;;;5095188;28;20402;-53
2022/03/25 05:09:41;;;;;;;51.37;25.93;;;;;;;;;;5095083;28;20406;-53
2022/03/25 05:12:08;;;;;;;54.93;26.07;;;;;;;;;;5076981;28;20940;-54
2022/03/25 05:14:34;;;;;;;54.10;26.77;;;;;;;;;;5094983;28;20457;-54
2022/03/25 05:17:00;;;;;;;54.17;26.20;;;;;;;;;;5094881;28;20815;-51
2022/03/25 05:19:26;;;;;;;58.83;26.87;;;;;;;;;;5094737;28;20449;-54
2022/03/25 05:21:52;;;;;;;58.90;26.03;;;;;;;;;;5094543;28;20414;-55
2022/03/25 05:24:18;;;;;;;52.47;26.77;;;;;;;;;;5094762;28;20409;-52
2022/03/25 05:26:44;;;;;;;55.93;25.77;;;;;;;;;;5094849;28;20422;-55
2022/03/25 05:29:10;;;;;;;58.60;27.17;;;;;;;;;;5094533;28;20471;-54
2022/03/25 05:31:37;;;;;;;55.27;26.87;;;;;;;;;;5094559;28;20467;-54
2022/03/25 05:34:04;;;;;;;63.47;29.23;;;;;;;;;;5076236;28;20761;-55
2022/03/25 05:36:31;;;;;;;71.10;31.20;;;;;;;;;;5094526;28;20510;-53
2022/03/25 05:38:57;;;;;;;61.33;28.80;;;;;;;;;;5093872;28;20420;-54
2022/03/25 05:41:24;;;;;;;51.00;25.90;;;;;;;;;;5094690;28;20434;-54
2022/03/25 05:43:50;;;;;;;52.50;25.50;;;;;;;;;;5094379;28;20412;-56
2022/03/25 05:46:17;;;;;;;68.20;31.10;;;;;;;;;;5076072;28;20413;-57
2022/03/25 05:48:43;;;;;;;59.57;27.33;;;;;;;;;;5094533;28;20798;-52
2022/03/25 05:51:10;;;;;;;60.90;27.30;;;;;;;;;;5076160;28;20923;-54
2022/03/25 05:53:36;;;;;;;62.30;25.90;;;;;;;;;;5094126;28;20497;-55
2022/03/25 05:56:03;;;;;;;55.47;27.43;;;;;;;;;;5094073;28;20466;-53
2022/03/25 05:58:33;;;;;;;53.67;28.87;;;;;;;;;;5094336;28;20844;-58
2022/03/25 06:00:59;;;;;;;54.10;28.10;;;;;;;;;;5094100;28;20398;-53
2022/03/25 06:03:25;;;;;;;56.17;28.27;;;;;;;;;;5094180;28;20421;-53
2022/03/25 06:05:51;;;;;;;61.53;27.73;;;;;;;;;;5094065;28;20413;-54
2022/03/25 06:08:17;;;;;;;55.80;28.00;;;;;;;;;;5093944;28;20410;-53
2022/03/25 06:10:46;;;;;;;53.37;26.20;;;;;;;;;;5093915;28;20425;-54
2022/03/25 06:13:12;;;;;;;53.30;28.20;;;;;;;;;;5093813;28;20402;-56
2022/03/25 06:15:38;;;;;;;57.77;27.50;;;;;;;;;;5093759;28;20841;-52
2022/03/25 06:18:08;;;;;;;59.97;26.70;;;;;;;;;;5075619;28;20770;-54
2022/03/25 06:20:34;;;;;;;52.63;27.47;;;;;;;;;;5075267;28;20430;-54
2022/03/25 06:23:01;;;;;;;57.30;27.80;;;;;;;;;;5093803;28;20416;-54
2022/03/25 06:25:28;;;;;;;63.63;27.00;;;;;;;;;;5093580;28;20412;-53
2022/03/25 06:27:58;;;;;;;60.90;28.70;;;;;;;;;;5093793;28;20434;-54
2022/03/25 06:30:27;;;;;;;54.00;28.10;;;;;;;;;;5093630;28;20402;-53
2022/03/25 06:32:53;;;;;;;60.67;29.03;;;;;;;;;;5093651;28;20434;-54
2022/03/25 06:35:22;;;;;;;59.20;29.00;;;;;;;;;;5093392;28;20468;-53
2022/03/25 06:37:49;;;;;;;59.47;28.73;;;;;;;;;;5093240;28;20398;-56
2022/03/25 06:40:15;;;;;;;51.03;28.80;;;;;;;;;;5093142;28;20420;-54
2022/03/25 06:42:42;;;;;;;63.57;33.10;;;;;;;;;;5075013;28;20455;-52
2022/03/25 06:45:10;;;;;;;89.33;40.90;;;;;;;;;;5093255;28;20921;-56
2022/03/25 06:47:36;;;;;;;58.63;29.40;;;;;;;;;;5093186;28;20390;-54
2022/03/25 06:50:04;;;;;;;59.43;30.90;;;;;;;;;;5092293;28;20420;-58
2022/03/25 06:52:30;;;;;;;60.10;28.27;;;;;;;;;;5092876;28;20389;-52
2022/03/25 06:54:56;;;;;;;69.67;32.17;;;;;;;;;;5093119;28;20449;-56
2022/03/25 06:57:22;;;;;;;56.23;28.50;;;;;;;;;;5074753;28;20418;-57
2022/03/25 06:59:48;;;;;;;51.07;28.47;;;;;;;;;;5092818;28;20489;-57
2022/03/25 07:02:15;;;;;;;64.20;29.00;;;;;;;;;;5092853;28;20418;-56
2022/03/25 07:04:42;;;;;;;69.97;30.23;;;;;;;;;;5092930;28;20933;-57
2022/03/25 07:07:08;;;;;;;63.37;30.00;;;;;;;;;;5092961;28;20504;-57
2022/03/25 07:09:35;;;;;;;71.80;30.80;;;;;;;;;;5092924;28;20451;-56
2022/03/25 07:12:02;;;;;;;62.30;29.40;;;;;;;;;;5092546;28;20430;-54
2022/03/25 07:14:28;;;;;;;64.87;30.57;;;;;;;;;;5092645;28;20458;-56
2022/03/25 07:16:54;;;;;;;65.27;29.07;;;;;;;;;;5092953;28;20459;-52
2022/03/25 07:19:23;;;;;;;63.30;31.70;;;;;;;;;;5092353;28;20540;-56
2022/03/25 07:21:49;;;;;;;70.80;32.80;;;;;;;;;;5092549;28;20402;-54
2022/03/25 07:24:15;;;;;;;66.77;32.00;;;;;;;;;;5092652;28;20500;-53
2022/03/25 07:26:41;;;;;;;60.13;29.30;;;;;;;;;;5092519;28;20497;-56
2022/03/25 07:29:07;;;;;;;60.30;31.43;;;;;;;;;;5092554;28;20530;-55
2022/03/25 07:31:33;;;;;;;55.77;30.63;;;;;;;;;;5092548;28;20917;-55
2022/03/25 07:33:59;;;;;;;61.60;32.70;;;;;;;;;;5092445;28;20417;-53
2022/03/25 07:36:25;;;;;;;67.50;34.47;;;;;;;;;;5092664;28;20829;-54
2022/03/25 07:38:52;;;;;;;69.00;35.50;;;;;;;;;;5092398;28;20500;-59
2022/03/25 07:41:19;;;;;;;67.67;39.20;;;;;;;;;;5092294;28;20432;-56
2022/03/25 07:43:45;;;;;;;85.20;40.80;;;;;;;;;;5092362;28;20420;-57
2022/03/25 07:46:11;;;;;;;84.00;40.07;;;;;;;;;;5092300;28;20548;-56
2022/03/25 07:48:37;;;;;;;83.40;38.30;;;;;;;;;;5091951;28;20406;-57
2022/03/25 07:51:03;;;;;;;78.80;40.13;;;;;;;;;;5092298;28;20410;-55
2022/03/25 07:53:29;;;;;;;77.77;37.60;;;;;;;;;;5092290;28;20936;-55
2022/03/25 07:55:55;;;;;;;81.03;38.77;;;;;;;;;;5092220;28;20495;-58
2022/03/25 07:58:23;;;;;;;73.63;39.10;;;;;;;;;;5092344;28;20964;-58
2022/03/25 08:00:49;;;;;;;72.73;37.37;;;;;;;;;;5092216;28;20410;-57
2022/03/25 08:03:16;;;;;;;72.80;35.27;;;;;;;;;;5095615;28;20409;-59
2022/03/25 08:05:42;;;;;;;68.07;34.93;;;;;;;;;;5096243;28;20441;-58
2022/03/25 08:08:08;;;;;;;71.60;36.57;;;;;;;;;;5096282;28;20522;-59
2022/03/25 08:10:35;;;;;;;67.63;34.57;;;;;;;;;;5096102;28;20434;-58
2022/03/25 08:13:01;;;;;;;64.90;33.13;;;;;;;;;;5095905;28;20402;-59
2022/03/25 08:15:32;;;;;;;66.97;33.90;;;;;;;;;;5096138;28;20552;-56
2022/03/25 08:18:01;;;;;;;61.97;31.20;;;;;;;;;;5096289;28;20596;-56
2022/03/25 08:20:40;;;;;;;60.73;30.17;;;;;;;;;;5096105;28;20944;-57
2022/03/25 08:23:08;;;;;;;64.37;31.03;;;;;;;;;;5077999;28;20766;-59
2022/03/25 08:28:19;;;;;;;64.10;29.60;;;;;;;;;;5095844;28;20458;-56
2022/03/25 08:30:49;;;;;;;71.87;31.03;;;;;;;;;;5095761;28;20414;-58
2022/03/25 08:33:16;;;;;;;67.93;31.33;;;;;;;;;;5097290;28;20412;-53
2022/03/25 08:35:42;;;;;;;59.47;29.67;;;;;;;;;;5115207;28;20499;-60
2022/03/25 08:38:09;;;;;;;59.83;30.73;;;;;;;;;;5114915;28;20411;-60
2022/03/25 08:40:35;;;;;;;60.53;31.57;;;;;;;;;;5115430;28;20513;-56
2022/03/25 08:43:02;;;;;;;66.10;32.87;;;;;;;;;;5115307;28;20546;-60
2022/03/25 08:45:29;;;;;;;65.50;31.40;;;;;;;;;;5108503;28;20427;-59
2022/03/25 08:47:55;;;;;;;61.37;31.07;;;;;;;;;;5097811;28;20458;-60
2022/03/25 08:50:22;;;;;;;64.83;32.37;;;;;;;;;;5115218;28;20404;-57
2022/03/25 08:52:49;;;;;;;69.10;33.40;;;;;;;;;;5096415;28;20409;-59
2022/03/25 08:55:16;;;;;;;64.60;32.07;;;;;;;;;;5115082;28;20781;-61
2022/03/25 08:57:42;;;;;;;62.43;32.33;;;;;;;;;;5115074;28;20409;-55
2022/03/25 09:00:12;;;;;;;65.77;30.60;;;;;;;;;;5115290;28;20521;-53
2022/03/25 09:02:40;;;;;;;68.23;32.13;;;;;;;;;;5095873;28;20405;-54
2022/03/25 09:05:06;;;;;;;66.47;32.00;;;;;;;;;;5094619;28;20405;-52
2022/03/25 09:07:32;;;;;;;63.03;31.53;;;;;;;;;;5098611;28;20425;-60
2022/03/25 09:09:58;;;;;;;52.53;30.97;;;;;;;;;;5114531;28;20512;-56
2022/03/25 09:12:24;;;;;;;65.03;32.37;;;;;;;;;;5114914;28;20452;-61
2022/03/25 09:14:51;;;;;;;57.33;31.53;;;;;;;;;;5113316;28;20500;-62
2022/03/25 09:17:17;;;;;;;59.43;31.60;;;;;;;;;;5114622;28;20477;-59
2022/03/25 09:19:43;;;;;;;58.37;30.23;;;;;;;;;;5094836;28;20488;-60
2022/03/25 09:22:12;;;;;;;61.10;30.43;;;;;;;;;;5094259;28;20744;-61
2022/03/25 09:24:38;;;;;;;52.77;29.83;;;;;;;;;;5093983;28;20429;-61
2022/03/25 09:27:04;;;;;;;64.27;31.37;;;;;;;;;;5094047;28;20406;-60
2022/03/25 09:29:33;;;;;;;51.63;29.73;;;;;;;;;;5093856;28;20406;-62
2022/03/25 09:31:59;;;;;;;54.60;29.80;;;;;;;;;;5093778;28;20810;-61
2022/03/25 09:37:10;;;;;;;48.53;27.00;;;;;;;;;;5093747;28;20478;-58
2022/03/25 09:39:36;;;;;;;55.23;29.13;;;;;;;;;;5093791;28;20402;-60
2022/03/25 09:42:04;;;;;;;50.00;26.90;;;;;;;;;;5100598;28;20425;-61
2022/03/25 09:44:31;;;;;;;49.17;28.37;;;;;;;;;;5114086;28;20430;-61
2022/03/25 09:46:57;;;;;;;51.30;26.30;;;;;;;;;;5095778;28;20411;-62
2022/03/25 09:49:23;;;;;;;50.77;28.53;;;;;;;;;;5113904;28;20466;-60
2022/03/25 09:51:49;;;;;;;56.80;28.13;;;;;;;;;;5113642;28;20897;-62
2022/03/25 09:54:17;;;;;;;56.17;25.70;;;;;;;;;;5113786;28;20413;-54
2022/03/25 09:56:43;;;;;;;51.70;27.17;;;;;;;;;;5114077;28;20433;-61
2022/03/25 09:59:10;;;;;;;44.03;23.57;;;;;;;;;;5113630;28;20428;-57
2022/03/25 10:01:36;;;;;;;41.97;24.00;;;;;;;;;;5113799;28;20766;-62
2022/03/25 10:04:02;;;;;;;41.10;22.10;;;;;;;;;;5113753;28;20769;-54
2022/03/25 10:06:28;;;;;;;39.90;20.53;;;;;;;;;;5095483;28;20416;-60
2022/03/25 10:08:56;;;;;;;40.53;22.40;;;;;;;;;;5113798;28;20409;-56
2022/03/25 10:11:32;;;;;;;39.27;21.40;;;;;;;;;;5113400;28;20413;-60
2022/03/25 10:14:20;;;;;;;35.50;19.37;;;;;;;;;;5113629;28;20423;-57
2022/03/25 10:16:46;;;;;;;41.13;21.87;;;;;;;;;;5113395;28;20420;-62
2022/03/25 10:19:20;;;;;;;35.37;19.73;;;;;;;;;;5113378;28;20487;-59
2022/03/25 10:22:05;;;;;;;35.60;19.07;;;;;;;;;;5113357;28;20404;-63
2022/03/25 10:24:44;;;;;;;30.90;18.73;;;;;;;;;;5113019;28;20787;-61
2022/03/25 10:27:10;;;;;;;32.40;18.60;;;;;;;;;;5113175;28;20432;-60
2022/03/25 10:29:37;;;;;;;37.67;19.10;;;;;;;;;;5113061;28;20409;-63
2022/03/25 10:32:10;;;;;;;29.13;16.60;;;;;;;;;;5113293;28;20503;-61
2022/03/25 10:34:37;;;;;;;23.10;14.33;;;;;;;;;;5112953;28;20444;-60
2022/03/25 10:37:04;;;;;;;29.53;15.43;;;;;;;;;;5112887;28;20409;-61
2022/03/25 10:39:30;;;;;;;35.77;17.20;;;;;;;;;;5112973;28;20416;-61
2022/03/25 10:42:03;;;;;;;38.93;17.90;;;;;;;;;;5112894;28;20412;-62
2022/03/25 10:44:34;;;;;;;26.17;16.60;;;;;;;;;;5112866;28;20397;-63
2022/03/25 10:47:00;;;;;;;32.63;16.90;;;;;;;;;;5094756;28;20944;-62
2022/03/25 10:49:37;;;;;;;38.13;15.23;;;;;;;;;;5112728;28;20405;-62
2022/03/25 10:52:05;;;;;;;29.27;13.23;;;;;;;;;;5112581;28;20409;-62
2022/03/25 10:54:32;;;;;;;32.53;14.40;;;;;;;;;;5112550;28;20487;-61
2022/03/25 10:57:02;;;;;;;31.33;15.10;;;;;;;;;;5094440;28;20421;-59
2022/03/25 10:59:28;;;;;;;32.53;14.50;;;;;;;;;;5112597;28;20405;-62
2022/03/25 11:01:56;;;;;;;33.10;14.47;;;;;;;;;;5112615;28;20442;-61
2022/03/25 11:04:22;;;;;;;29.80;14.93;;;;;;;;;;5112491;28;20474;-62
2022/03/25 11:06:48;;;;;;;29.90;14.47;;;;;;;;;;5112444;28;20405;-62
2022/03/25 11:09:15;;;;;;;24.57;13.40;;;;;;;;;;5094209;28;20412;-63
2022/03/25 11:11:42;;;;;;;33.33;16.20;;;;;;;;;;5094232;28;20827;-62
2022/03/25 11:14:09;;;;;;;27.40;15.70;;;;;;;;;;5112443;28;20778;-64
2022/03/25 11:16:36;;;;;;;30.83;16.10;;;;;;;;;;5112223;28;20770;-61
2022/03/25 11:19:02;;;;;;;25.23;14.70;;;;;;;;;;5112094;28;20480;-60
2022/03/25 11:21:28;;;;;;;31.00;16.60;;;;;;;;;;5112343;28;20466;-60
2022/03/25 11:23:56;;;;;;;31.83;16.87;;;;;;;;;;5112264;28;20412;-60
2022/03/25 11:26:24;;;;;;;27.00;16.70;;;;;;;;;;5112245;28;20405;-60
2022/03/25 11:28:55;;;;;;;38.97;16.03;;;;;;;;;;5112587;28;20413;-59
2022/03/25 11:31:30;;;;;;;30.13;16.40;;;;;;;;;;5112226;28;20448;-61
2022/03/25 11:34:09;;;;;;;24.30;15.57;;;;;;;;;;5112299;28;20424;-63
2022/03/25 11:36:40;;;;;;;29.20;16.13;;;;;;;;;;5111448;28;20490;-62
2022/03/25 11:39:21;;;;;;;28.90;15.47;;;;;;;;;;5112278;28;20410;-54
2022/03/25 11:41:47;;;;;;;31.30;15.53;;;;;;;;;;5111778;28;20941;-55
2022/03/25 11:44:16;;;;;;;29.13;16.00;;;;;;;;;;5112009;28;20404;-59
2022/03/25 11:47:01;;;;;;;32.40;17.20;;;;;;;;;;5112052;28;20416;-62
2022/03/25 11:49:30;;;;;;;31.57;17.00;;;;;;;;;;5112004;28;20405;-59
2022/03/25 11:51:57;;;;;;;29.80;17.00;;;;;;;;;;5112168;28;20409;-62
2022/03/25 11:54:36;;;;;;;28.00;16.50;;;;;;;;;;5093681;28;20921;-60
2022/03/25 11:57:06;;;;;;;27.73;15.77;;;;;;;;;;5111804;28;20444;-61
2022/03/25 11:59:51;;;;;;;35.00;21.10;;;;;;;;;;5093530;28;20933;-57
2022/03/25 12:02:26;;;;;;;33.63;18.17;;;;;;;;;;5111940;28;20420;-61
2022/03/25 12:04:55;;;;;;;36.40;17.30;;;;;;;;;;5093953;28;20531;-61
2022/03/25 12:07:21;;;;;;;28.53;15.73;;;;;;;;;;5111995;28;20727;-59
2022/03/25 12:09:47;;;;;;;28.70;17.60;;;;;;;;;;5111710;28;20759;-61
2022/03/25 12:12:13;;;;;;;30.83;18.50;;;;;;;;;;5111890;28;20401;-61
2022/03/25 12:15:05;;;;;;;27.17;16.47;;;;;;;;;;5111573;28;21009;-61
2022/03/25 12:17:31;;;;;;;32.43;18.90;;;;;;;;;;5111830;28;20916;-62
2022/03/25 12:19:57;;;;;;;34.33;21.20;;;;;;;;;;5111797;28;20456;-62
2022/03/25 12:22:24;;;;;;;34.03;20.47;;;;;;;;;;5093600;28;20405;-60
2022/03/25 12:24:51;;;;;;;35.40;21.27;;;;;;;;;;5111735;28;20484;-58
2022/03/25 12:27:21;;;;;;;33.60;21.10;;;;;;;;;;5111459;28;20477;-60
2022/03/25 12:29:54;;;;;;;24.73;15.80;;;;;;;;;;5111599;28;20408;-60
2022/03/25 12:32:21;;;;;;;33.87;18.00;;;;;;;;;;5111733;28;20415;-56
2022/03/25 12:35:05;;;;;;;29.03;18.67;;;;;;;;;;5111703;28;20499;-60
2022/03/25 12:37:31;;;;;;;32.60;18.60;;;;;;;;;;5111716;28;20458;-57
2022/03/25 12:40:08;;;;;;;33.27;21.50;;;;;;;;;;5111648;28;20468;-56
2022/03/25 12:42:37;;;;;;;34.70;20.40;;;;;;;;;;5093234;28;20420;-57
2022/03/25 12:45:04;;;;;;;35.80;21.70;;;;;;;;;;5111484;28;20437;-58
2022/03/25 12:47:34;;;;;;;38.30;23.03;;;;;;;;;;5112051;28;20413;-57
2022/03/25 12:50:02;;;;;;;36.43;22.13;;;;;;;;;;5115206;28;20412;-59
2022/03/25 12:52:28;;;;;;;40.27;22.03;;;;;;;;;;5115192;28;20404;-56
2022/03/25 12:54:54;;;;;;;42.30;21.97;;;;;;;;;;5115273;28;20448;-56
2022/03/25 12:57:30;;;;;;;41.87;21.70;;;;;;;;;;5096786;28;20482;-56
2022/03/25 12:59:57;;;;;;;34.63;22.57;;;;;;;;;;5114970;28;20397;-58
2022/03/25 13:02:33;;;;;;;37.13;23.00;;;;;;;;;;5115146;28;20413;-61
2022/03/25 13:05:13;;;;;;;33.77;21.87;;;;;;;;;;5115004;28;20754;-62
2022/03/25 13:07:40;;;;;;;42.40;22.27;;;;;;;;;;5114891;28;20440;-59
2022/03/25 13:10:07;;;;;;;42.70;22.67;;;;;;;;;;5114884;28;20392;-60
2022/03/25 13:12:34;;;;;;;40.50;22.50;;;;;;;;;;5114720;28;20401;-57
2022/03/25 13:15:01;;;;;;;36.00;23.23;;;;;;;;;;5114750;28;20497;-59
2022/03/25 13:17:40;;;;;;;36.20;23.17;;;;;;;;;;5114819;28;20936;-58
2022/03/25 13:20:09;;;;;;;33.60;22.77;;;;;;;;;;5114393;28;20453;-56
2022/03/25 13:22:37;;;;;;;42.10;24.60;;;;;;;;;;5114664;28;20405;-56
2022/03/25 13:25:08;;;;;;;45.97;25.60;;;;;;;;;;5114203;28;20412;-56
2022/03/25 13:27:34;;;;;;;40.33;25.87;;;;;;;;;;5114762;28;20423;-61
2022/03/25 13:30:02;;;;;;;41.20;25.63;;;;;;;;;;5114585;28;20481;-57
2022/03/25 13:32:35;;;;;;;38.13;22.70;;;;;;;;;;5114522;28;20405;-58
2022/03/25 13:35:06;;;;;;;42.07;22.23;;;;;;;;;;5114268;28;20985;-61
2022/03/25 13:37:32;;;;;;;39.10;24.03;;;;;;;;;;5114355;28;20465;-60
2022/03/25 13:39:58;;;;;;;47.63;24.07;;;;;;;;;;5114252;28;20929;-61
2022/03/25 13:42:31;;;;;;;40.40;25.90;;;;;;;;;;5114436;28;20420;-58
2022/03/25 13:45:07;;;;;;;36.03;23.60;;;;;;;;;;5114176;28;20407;-56
2022/03/25 13:47:37;;;;;;;42.73;25.20;;;;;;;;;;5114093;28;21102;-57
2022/03/25 13:50:12;;;;;;;43.57;25.40;;;;;;;;;;5113835;28;20889;-59
2022/03/25 13:52:38;;;;;;;46.43;24.40;;;;;;;;;;5113948;28;20936;-58
2022/03/25 13:55:17;;;;;;;43.40;26.40;;;;;;;;;;5113755;28;20453;-58
2022/03/25 13:57:56;;;;;;;44.80;23.77;;;;;;;;;;5114051;28;20418;-57
2022/03/25 14:00:33;;;;;;;40.87;24.27;;;;;;;;;;5113526;28;20388;-56
2022/03/25 14:02:59;;;;;;;33.17;24.10;;;;;;;;;;5113942;28;20467;-63
2022/03/25 14:05:26;;;;;;;40.23;24.20;;;;;;;;;;5114014;28;20427;-61
2022/03/25 14:07:57;;;;;;;40.70;24.43;;;;;;;;;;5113967;28;20412;-61
2022/03/25 14:10:26;;;;;;;42.03;23.60;;;;;;;;;;5113883;28;20405;-59
2022/03/25 14:12:56;;;;;;;46.50;22.97;;;;;;;;;;5113779;28;20389;-61
2022/03/25 14:15:25;;;;;;;42.73;23.23;;;;;;;;;;5113221;28;20464;-60
2022/03/25 14:17:55;;;;;;;38.50;23.87;;;;;;;;;;5113437;28;20404;-57
2022/03/25 14:20:22;;;;;;;43.13;23.77;;;;;;;;;;5113224;28;20464;-58
2022/03/25 14:22:55;;;;;;;43.70;23.73;;;;;;;;;;5113147;28;20432;-61
2022/03/25 14:25:23;;;;;;;37.97;23.97;;;;;;;;;;5113258;28;20446;-60